sensor_id;sensor_type;location;lat;lon;timestamp;P1;durP1;ratioP1;P2;durP2;ratioP2
11418;SDS011;32800;44.876;13.880;2022-11-04T00:02:21;5.18;;;4.68;;
11418;SDS011;32800;44.876;13.880;2022-11-04T00:04:46;5.72;;;4.72;;
11418;SDS011;32800;44.876;13.880;2022-11-04T00:07:12;5.50;;;5.00;;
11418;SDS011;32800;44.876;13.880;2022-11-04T00:09:56;5.07;;;4.57;;
11418;SDS011;32800;44.876;13.880;2022-11-04T00:12:22;5.32;;;4.82;;
11418;SDS011;32800;44.876;13.880;2022-11-04T00:14:50;5.82;;;4.88;;
11418;SDS011;32800;44.876;13.880;2022-11-04T00:17:15;4.97;;;4.47;;
11418;SDS011;32800;44.876;13.880;2022-11-04T00:19:44;5.57;;;4.22;;
11418;SDS011;32800;44.876;13.880;2022-11-04T00:22:28;5.10;;;4.60;;
11418;SDS011;32800;44.876;13.880;2022-11-04T00:25:12;4.85;;;4.35;;
11418;SDS011;32800;44.876;13.880;2022-11-04T00:31:00;4.80;;;4.40;;
11418;SDS011;32800;44.876;13.880;2022-11-04T00:33:46;4.93;;;4.40;;
11418;SDS011;32800;44.876;13.880;2022-11-04T00:36:12;5.63;;;4.40;;
11418;SDS011;32800;44.876;13.880;2022-11-04T00:38:38;5.10;;;4.60;;
11418;SDS011;32800;44.876;13.880;2022-11-04T00:41:03;4.60;;;4.20;;
11418;SDS011;32800;44.876;13.880;2022-11-04T00:43:49;5.05;;;4.32;;
11418;SDS011;32800;44.876;13.880;2022-11-04T00:46:14;4.75;;;4.35;;
11418;SDS011;32800;44.876;13.880;2022-11-04T00:48:40;4.55;;;4.15;;
11418;SDS011;32800;44.876;13.880;2022-11-04T00:51:05;5.13;;;4.53;;
11418;SDS011;32800;44.876;13.880;2022-11-04T00:53:31;5.00;;;4.47;;
11418;SDS011;32800;44.876;13.880;2022-11-04T00:55:59;4.53;;;4.13;;
11418;SDS011;32800;44.876;13.880;2022-11-04T00:58:26;5.03;;;4.53;;
11418;SDS011;32800;44.876;13.880;2022-11-04T01:00:52;4.60;;;4.20;;
11418;SDS011;32800;44.876;13.880;2022-11-04T01:03:18;4.50;;;3.90;;
11418;SDS011;32800;44.876;13.880;2022-11-04T01:05:43;4.88;;;4.38;;
11418;SDS011;32800;44.876;13.880;2022-11-04T01:08:09;4.80;;;4.30;;
11418;SDS011;32800;44.876;13.880;2022-11-04T01:10:36;4.32;;;3.92;;
11418;SDS011;32800;44.876;13.880;2022-11-04T01:13:08;4.80;;;4.40;;
11418;SDS011;32800;44.876;13.880;2022-11-04T01:15:35;4.78;;;4.05;;
11418;SDS011;32800;44.876;13.880;2022-11-04T01:18:01;4.30;;;3.90;;
11418;SDS011;32800;44.876;13.880;2022-11-04T01:20:27;4.68;;;4.28;;
11418;SDS011;32800;44.876;13.880;2022-11-04T01:22:53;4.15;;;3.75;;
11418;SDS011;32800;44.876;13.880;2022-11-04T01:25:18;4.63;;;4.20;;
11418;SDS011;32800;44.876;13.880;2022-11-04T01:27:44;4.22;;;3.85;;
11418;SDS011;32800;44.876;13.880;2022-11-04T01:30:09;4.00;;;3.70;;
11418;SDS011;32800;44.876;13.880;2022-11-04T01:32:35;4.45;;;4.05;;
11418;SDS011;32800;44.876;13.880;2022-11-04T01:35:01;4.90;;;4.40;;
11418;SDS011;32800;44.876;13.880;2022-11-04T01:37:26;5.22;;;4.35;;
11418;SDS011;32800;44.876;13.880;2022-11-04T01:39:52;4.68;;;4.28;;
11418;SDS011;32800;44.876;13.880;2022-11-04T01:42:19;4.82;;;3.97;;
11418;SDS011;32800;44.876;13.880;2022-11-04T01:44:50;4.50;;;4.10;;
11418;SDS011;32800;44.876;13.880;2022-11-04T01:47:22;4.32;;;3.83;;
11418;SDS011;32800;44.876;13.880;2022-11-04T01:49:54;4.22;;;3.83;;
11418;SDS011;32800;44.876;13.880;2022-11-04T01:52:43;4.10;;;3.70;;
11418;SDS011;32800;44.876;13.880;2022-11-04T01:55:13;4.70;;;4.20;;
11418;SDS011;32800;44.876;13.880;2022-11-04T01:57:42;4.93;;;4.15;;
11418;SDS011;32800;44.876;13.880;2022-11-04T02:00:11;4.40;;;4.00;;
11418;SDS011;32800;44.876;13.880;2022-11-04T02:02:39;4.45;;;3.78;;
11418;SDS011;32800;44.876;13.880;2022-11-04T02:05:15;4.63;;;3.80;;
11418;SDS011;32800;44.876;13.880;2022-11-04T02:07:41;4.18;;;3.78;;
11418;SDS011;32800;44.876;13.880;2022-11-04T02:10:06;4.38;;;3.67;;
11418;SDS011;32800;44.876;13.880;2022-11-04T02:12:32;4.28;;;3.83;;
11418;SDS011;32800;44.876;13.880;2022-11-04T02:15:18;4.00;;;3.55;;
11418;SDS011;32800;44.876;13.880;2022-11-04T02:23:26;4.28;;;3.88;;
11418;SDS011;32800;44.876;13.880;2022-11-04T02:32:15;3.92;;;3.53;;
11418;SDS011;32800;44.876;13.880;2022-11-04T02:46:05;3.85;;;3.50;;
11418;SDS011;32800;44.876;13.880;2022-11-04T02:48:46;3.92;;;3.50;;
11418;SDS011;32800;44.876;13.880;2022-11-04T02:54:08;4.40;;;3.78;;
11418;SDS011;32800;44.876;13.880;2022-11-04T02:56:38;4.30;;;3.70;;
11418;SDS011;32800;44.876;13.880;2022-11-04T02:59:08;3.85;;;3.40;;
11418;SDS011;32800;44.876;13.880;2022-11-04T03:01:38;3.70;;;3.13;;
11418;SDS011;32800;44.876;13.880;2022-11-04T03:04:16;4.22;;;3.83;;
11418;SDS011;32800;44.876;13.880;2022-11-04T03:06:46;4.63;;;4.05;;
11418;SDS011;32800;44.876;13.880;2022-11-04T03:09:13;4.38;;;3.55;;
11418;SDS011;32800;44.876;13.880;2022-11-04T03:11:40;4.18;;;3.60;;
11418;SDS011;32800;44.876;13.880;2022-11-04T03:14:09;4.20;;;3.42;;
11418;SDS011;32800;44.876;13.880;2022-11-04T03:16:46;4.23;;;3.70;;
11418;SDS011;32800;44.876;13.880;2022-11-04T03:22:16;3.88;;;3.50;;
11418;SDS011;32800;44.876;13.880;2022-11-04T03:24:43;4.65;;;3.80;;
11418;SDS011;32800;44.876;13.880;2022-11-04T03:30:16;3.58;;;3.28;;
11418;SDS011;32800;44.876;13.880;2022-11-04T03:35:28;3.83;;;3.42;;
11418;SDS011;32800;44.876;13.880;2022-11-04T03:37:54;4.00;;;3.60;;
11418;SDS011;32800;44.876;13.880;2022-11-04T03:40:20;4.32;;;3.20;;
11418;SDS011;32800;44.876;13.880;2022-11-04T03:42:55;3.53;;;3.22;;
11418;SDS011;32800;44.876;13.880;2022-11-04T03:45:34;3.90;;;3.50;;
11418;SDS011;32800;44.876;13.880;2022-11-04T03:48:00;4.63;;;3.33;;
11418;SDS011;32800;44.876;13.880;2022-11-04T03:50:32;3.95;;;3.55;;
11418;SDS011;32800;44.876;13.880;2022-11-04T03:53:03;3.70;;;3.40;;
11418;SDS011;32800;44.876;13.880;2022-11-04T03:58:36;3.40;;;3.10;;
11418;SDS011;32800;44.876;13.880;2022-11-04T04:04:47;3.50;;;3.20;;
11418;SDS011;32800;44.876;13.880;2022-11-04T04:07:03;4.13;;;3.72;;
11418;SDS011;32800;44.876;13.880;2022-11-04T04:10:25;3.85;;;3.00;;
11418;SDS011;32800;44.876;13.880;2022-11-04T04:12:52;3.30;;;3.00;;
11418;SDS011;32800;44.876;13.880;2022-11-04T04:15:23;3.47;;;3.17;;
11418;SDS011;32800;44.876;13.880;2022-11-04T04:18:03;3.60;;;3.30;;
11418;SDS011;32800;44.876;13.880;2022-11-04T04:20:31;3.83;;;3.43;;
11418;SDS011;32800;44.876;13.880;2022-11-04T04:23:02;3.38;;;3.05;;
11418;SDS011;32800;44.876;13.880;2022-11-04T04:25:53;3.45;;;2.90;;
11418;SDS011;32800;44.876;13.880;2022-11-04T04:28:38;3.42;;;3.13;;
11418;SDS011;32800;44.876;13.880;2022-11-04T04:31:04;3.45;;;3.10;;
11418;SDS011;32800;44.876;13.880;2022-11-04T04:33:31;4.10;;;3.30;;
11418;SDS011;32800;44.876;13.880;2022-11-04T04:35:57;5.27;;;3.27;;
11418;SDS011;32800;44.876;13.880;2022-11-04T04:38:27;4.75;;;3.10;;
11418;SDS011;32800;44.876;13.880;2022-11-04T04:44:19;3.35;;;2.90;;
11418;SDS011;32800;44.876;13.880;2022-11-04T04:47:07;3.22;;;3.03;;
11418;SDS011;32800;44.876;13.880;2022-11-04T04:49:34;4.32;;;3.13;;
11418;SDS011;32800;44.876;13.880;2022-11-04T04:52:00;3.47;;;3.03;;
11418;SDS011;32800;44.876;13.880;2022-11-04T04:54:26;3.22;;;2.90;;
11418;SDS011;32800;44.876;13.880;2022-11-04T04:56:52;3.93;;;3.23;;
11418;SDS011;32800;44.876;13.880;2022-11-04T04:59:17;3.85;;;3.28;;
11418;SDS011;32800;44.876;13.880;2022-11-04T05:01:43;4.95;;;3.20;;
11418;SDS011;32800;44.876;13.880;2022-11-04T05:04:09;3.55;;;3.25;;
11418;SDS011;32800;44.876;13.880;2022-11-04T05:06:34;3.70;;;3.27;;
11418;SDS011;32800;44.876;13.880;2022-11-04T05:09:00;3.72;;;3.25;;
11418;SDS011;32800;44.876;13.880;2022-11-04T05:11:25;5.73;;;3.47;;
11418;SDS011;32800;44.876;13.880;2022-11-04T05:13:51;3.92;;;3.13;;
11418;SDS011;32800;44.876;13.880;2022-11-04T05:16:16;4.28;;;3.38;;
11418;SDS011;32800;44.876;13.880;2022-11-04T05:18:42;3.27;;;2.97;;
11418;SDS011;32800;44.876;13.880;2022-11-04T05:21:09;3.17;;;2.88;;
11418;SDS011;32800;44.876;13.880;2022-11-04T05:23:36;4.00;;;3.10;;
11418;SDS011;32800;44.876;13.880;2022-11-04T05:26:02;4.28;;;3.17;;
11418;SDS011;32800;44.876;13.880;2022-11-04T05:28:28;3.73;;;3.03;;
11418;SDS011;32800;44.876;13.880;2022-11-04T05:30:53;4.30;;;3.28;;
11418;SDS011;32800;44.876;13.880;2022-11-04T05:33:19;3.60;;;2.85;;
11418;SDS011;32800;44.876;13.880;2022-11-04T05:35:45;3.97;;;3.13;;
11418;SDS011;32800;44.876;13.880;2022-11-04T05:38:10;4.30;;;3.10;;
11418;SDS011;32800;44.876;13.880;2022-11-04T05:40:36;3.13;;;2.83;;
11418;SDS011;32800;44.876;13.880;2022-11-04T05:43:01;3.20;;;2.90;;
11418;SDS011;32800;44.876;13.880;2022-11-04T05:45:27;3.37;;;2.70;;
11418;SDS011;32800;44.876;13.880;2022-11-04T05:48:00;3.17;;;2.78;;
11418;SDS011;32800;44.876;13.880;2022-11-04T05:50:26;5.60;;;2.70;;
11418;SDS011;32800;44.876;13.880;2022-11-04T05:52:52;4.73;;;3.17;;
11418;SDS011;32800;44.876;13.880;2022-11-04T05:55:21;3.40;;;2.90;;
11418;SDS011;32800;44.876;13.880;2022-11-04T05:57:46;3.40;;;3.10;;
11418;SDS011;32800;44.876;13.880;2022-11-04T06:00:12;5.20;;;2.97;;
11418;SDS011;32800;44.876;13.880;2022-11-04T06:02:38;3.33;;;3.03;;
11418;SDS011;32800;44.876;13.880;2022-11-04T06:05:04;3.63;;;2.90;;
11418;SDS011;32800;44.876;13.880;2022-11-04T06:07:30;3.40;;;3.10;;
11418;SDS011;32800;44.876;13.880;2022-11-04T06:09:55;3.53;;;2.78;;
11418;SDS011;32800;44.876;13.880;2022-11-04T06:12:21;5.18;;;3.00;;
11418;SDS011;32800;44.876;13.880;2022-11-04T06:14:46;4.03;;;2.97;;
11418;SDS011;32800;44.876;13.880;2022-11-04T06:17:13;3.65;;;3.17;;
11418;SDS011;32800;44.876;13.880;2022-11-04T06:19:40;4.23;;;3.07;;
11418;SDS011;32800;44.876;13.880;2022-11-04T06:22:05;3.43;;;2.80;;
11418;SDS011;32800;44.876;13.880;2022-11-04T06:24:31;4.00;;;3.10;;
11418;SDS011;32800;44.876;13.880;2022-11-04T06:26:56;3.23;;;2.87;;
11418;SDS011;32800;44.876;13.880;2022-11-04T06:29:22;4.93;;;2.90;;
11418;SDS011;32800;44.876;13.880;2022-11-04T06:31:47;3.20;;;2.90;;
11418;SDS011;32800;44.876;13.880;2022-11-04T06:34:13;3.00;;;2.60;;
11418;SDS011;32800;44.876;13.880;2022-11-04T06:36:38;3.33;;;3.03;;
11418;SDS011;32800;44.876;13.880;2022-11-04T06:39:04;4.10;;;3.03;;
11418;SDS011;32800;44.876;13.880;2022-11-04T06:41:29;4.00;;;3.07;;
11418;SDS011;32800;44.876;13.880;2022-11-04T06:43:55;3.30;;;3.00;;
11418;SDS011;32800;44.876;13.880;2022-11-04T06:46:25;3.60;;;2.80;;
11418;SDS011;32800;44.876;13.880;2022-11-04T06:48:57;3.90;;;3.17;;
11418;SDS011;32800;44.876;13.880;2022-11-04T06:51:22;3.45;;;2.88;;
11418;SDS011;32800;44.876;13.880;2022-11-04T06:53:48;3.78;;;2.85;;
11418;SDS011;32800;44.876;13.880;2022-11-04T06:56:14;3.80;;;3.07;;
11418;SDS011;32800;44.876;13.880;2022-11-04T06:58:39;3.03;;;2.73;;
11418;SDS011;32800;44.876;13.880;2022-11-04T07:01:05;3.23;;;2.90;;
11418;SDS011;32800;44.876;13.880;2022-11-04T07:03:31;3.43;;;2.80;;
11418;SDS011;32800;44.876;13.880;2022-11-04T07:05:56;4.67;;;3.03;;
11418;SDS011;32800;44.876;13.880;2022-11-04T07:08:22;2.70;;;2.33;;
11418;SDS011;32800;44.876;13.880;2022-11-04T07:10:47;3.92;;;3.10;;
11418;SDS011;32800;44.876;13.880;2022-11-04T07:13:13;3.83;;;2.77;;
11418;SDS011;32800;44.876;13.880;2022-11-04T07:15:40;4.00;;;3.00;;
11418;SDS011;32800;44.876;13.880;2022-11-04T07:18:06;3.10;;;2.67;;
11418;SDS011;32800;44.876;13.880;2022-11-04T07:20:35;3.67;;;2.60;;
11418;SDS011;32800;44.876;13.880;2022-11-04T07:23:01;3.30;;;2.63;;
11418;SDS011;32800;44.876;13.880;2022-11-04T07:25:26;2.58;;;2.38;;
11418;SDS011;32800;44.876;13.880;2022-11-04T07:27:52;3.67;;;2.50;;
11418;SDS011;32800;44.876;13.880;2022-11-04T07:30:17;3.97;;;2.53;;
11418;SDS011;32800;44.876;13.880;2022-11-04T07:32:44;2.90;;;2.60;;
11418;SDS011;32800;44.876;13.880;2022-11-04T07:35:10;3.10;;;2.63;;
11418;SDS011;32800;44.876;13.880;2022-11-04T07:37:36;5.00;;;2.77;;
11418;SDS011;32800;44.876;13.880;2022-11-04T07:40:03;3.40;;;2.50;;
11418;SDS011;32800;44.876;13.880;2022-11-04T07:42:29;3.90;;;3.07;;
11418;SDS011;32800;44.876;13.880;2022-11-04T07:44:55;3.23;;;2.77;;
11418;SDS011;32800;44.876;13.880;2022-11-04T07:47:20;3.27;;;2.80;;
11418;SDS011;32800;44.876;13.880;2022-11-04T07:49:46;2.90;;;2.60;;
11418;SDS011;32800;44.876;13.880;2022-11-04T07:52:12;3.57;;;2.83;;
11418;SDS011;32800;44.876;13.880;2022-11-04T07:54:38;4.40;;;2.87;;
11418;SDS011;32800;44.876;13.880;2022-11-04T07:57:03;3.93;;;2.53;;
11418;SDS011;32800;44.876;13.880;2022-11-04T07:59:29;3.60;;;2.57;;
11418;SDS011;32800;44.876;13.880;2022-11-04T08:01:54;4.30;;;2.88;;
11418;SDS011;32800;44.876;13.880;2022-11-04T08:04:20;3.77;;;2.83;;
11418;SDS011;32800;44.876;13.880;2022-11-04T08:06:46;3.15;;;2.85;;
11418;SDS011;32800;44.876;13.880;2022-11-04T08:09:11;4.10;;;2.77;;
11418;SDS011;32800;44.876;13.880;2022-11-04T08:11:37;4.23;;;2.83;;
11418;SDS011;32800;44.876;13.880;2022-11-04T08:14:02;3.57;;;2.60;;
11418;SDS011;32800;44.876;13.880;2022-11-04T08:16:29;3.30;;;3.00;;
11418;SDS011;32800;44.876;13.880;2022-11-04T08:18:54;3.47;;;2.42;;
11418;SDS011;32800;44.876;13.880;2022-11-04T08:21:25;4.73;;;2.70;;
11418;SDS011;32800;44.876;13.880;2022-11-04T08:23:51;2.97;;;2.53;;
11418;SDS011;32800;44.876;13.880;2022-11-04T08:26:17;3.87;;;2.60;;
11418;SDS011;32800;44.876;13.880;2022-11-04T08:28:43;4.70;;;2.50;;
11418;SDS011;32800;44.876;13.880;2022-11-04T08:31:10;4.57;;;2.60;;
11418;SDS011;32800;44.876;13.880;2022-11-04T08:33:39;3.33;;;2.50;;
11418;SDS011;32800;44.876;13.880;2022-11-04T08:36:16;3.67;;;2.63;;
11418;SDS011;32800;44.876;13.880;2022-11-04T08:38:43;2.90;;;2.63;;
11418;SDS011;32800;44.876;13.880;2022-11-04T08:41:09;4.50;;;2.70;;
11418;SDS011;32800;44.876;13.880;2022-11-04T08:43:36;3.20;;;2.70;;
11418;SDS011;32800;44.876;13.880;2022-11-04T08:46:06;2.80;;;2.50;;
11418;SDS011;32800;44.876;13.880;2022-11-04T08:48:33;4.27;;;2.80;;
11418;SDS011;32800;44.876;13.880;2022-11-04T08:50:59;3.60;;;2.33;;
11418;SDS011;32800;44.876;13.880;2022-11-04T08:53:25;5.40;;;2.90;;
11418;SDS011;32800;44.876;13.880;2022-11-04T08:55:51;4.10;;;2.53;;
11418;SDS011;32800;44.876;13.880;2022-11-04T08:58:17;5.73;;;3.33;;
11418;SDS011;32800;44.876;13.880;2022-11-04T09:00:43;5.73;;;3.40;;
11418;SDS011;32800;44.876;13.880;2022-11-04T09:03:09;4.07;;;3.03;;
11418;SDS011;32800;44.876;13.880;2022-11-04T09:05:38;5.47;;;3.60;;
11418;SDS011;32800;44.876;13.880;2022-11-04T09:08:10;10.00;;;3.63;;
11418;SDS011;32800;44.876;13.880;2022-11-04T09:10:39;8.27;;;3.58;;
11418;SDS011;32800;44.876;13.880;2022-11-04T09:13:06;7.77;;;3.87;;
11418;SDS011;32800;44.876;13.880;2022-11-04T09:15:34;8.37;;;3.60;;
11418;SDS011;32800;44.876;13.880;2022-11-04T09:18:00;6.07;;;3.80;;
11418;SDS011;32800;44.876;13.880;2022-11-04T09:20:26;9.13;;;3.90;;
11418;SDS011;32800;44.876;13.880;2022-11-04T09:22:52;7.40;;;4.10;;
11418;SDS011;32800;44.876;13.880;2022-11-04T09:25:18;8.10;;;3.60;;
11418;SDS011;32800;44.876;13.880;2022-11-04T09:27:43;6.30;;;3.75;;
11418;SDS011;32800;44.876;13.880;2022-11-04T09:30:09;6.97;;;3.40;;
11418;SDS011;32800;44.876;13.880;2022-11-04T09:32:35;6.68;;;4.22;;
11418;SDS011;32800;44.876;13.880;2022-11-04T09:35:01;6.95;;;3.78;;
11418;SDS011;32800;44.876;13.880;2022-11-04T09:37:26;7.70;;;3.43;;
11418;SDS011;32800;44.876;13.880;2022-11-04T09:39:52;8.05;;;3.97;;
11418;SDS011;32800;44.876;13.880;2022-11-04T09:42:24;5.05;;;3.63;;
11418;SDS011;32800;44.876;13.880;2022-11-04T09:45:00;8.77;;;3.92;;
11418;SDS011;32800;44.876;13.880;2022-11-04T09:47:28;5.80;;;3.30;;
11418;SDS011;32800;44.876;13.880;2022-11-04T09:49:55;6.88;;;3.95;;
11418;SDS011;32800;44.876;13.880;2022-11-04T09:52:27;7.78;;;4.40;;
11418;SDS011;32800;44.876;13.880;2022-11-04T09:55:30;6.38;;;3.38;;
11418;SDS011;32800;44.876;13.880;2022-11-04T09:57:54;8.82;;;3.95;;
11418;SDS011;32800;44.876;13.880;2022-11-04T10:00:22;6.78;;;3.97;;
11418;SDS011;32800;44.876;13.880;2022-11-04T10:05:42;9.20;;;3.75;;
11418;SDS011;32800;44.876;13.880;2022-11-04T10:25:54;7.72;;;3.63;;
11418;SDS011;32800;44.876;13.880;2022-11-04T10:27:47;8.32;;;3.45;;
11418;SDS011;32800;44.876;13.880;2022-11-04T10:30:18;6.95;;;3.63;;
11418;SDS011;32800;44.876;13.880;2022-11-04T10:38:04;7.45;;;4.10;;
11418;SDS011;32800;44.876;13.880;2022-11-04T10:40:54;8.15;;;3.70;;
11418;SDS011;32800;44.876;13.880;2022-11-04T10:43:27;10.90;;;3.75;;
11418;SDS011;32800;44.876;13.880;2022-11-04T10:49:11;7.80;;;3.30;;
11418;SDS011;32800;44.876;13.880;2022-11-04T10:51:39;8.15;;;3.60;;
11418;SDS011;32800;44.876;13.880;2022-11-04T10:54:06;9.88;;;4.38;;
11418;SDS011;32800;44.876;13.880;2022-11-04T10:56:54;7.88;;;3.83;;
11418;SDS011;32800;44.876;13.880;2022-11-04T10:59:29;9.77;;;3.58;;
11418;SDS011;32800;44.876;13.880;2022-11-04T11:02:15;7.45;;;3.53;;
11418;SDS011;32800;44.876;13.880;2022-11-04T11:04:41;7.85;;;3.72;;
11418;SDS011;32800;44.876;13.880;2022-11-04T11:07:09;8.93;;;3.63;;
11418;SDS011;32800;44.876;13.880;2022-11-04T11:09:42;9.32;;;3.75;;
11418;SDS011;32800;44.876;13.880;2022-11-04T11:12:22;9.05;;;3.50;;
11418;SDS011;32800;44.876;13.880;2022-11-04T11:14:54;7.47;;;3.30;;
11418;SDS011;32800;44.876;13.880;2022-11-04T11:17:22;8.77;;;3.50;;
11418;SDS011;32800;44.876;13.880;2022-11-04T11:20:02;9.18;;;3.53;;
11418;SDS011;32800;44.876;13.880;2022-11-04T11:22:48;6.07;;;3.20;;
11418;SDS011;32800;44.876;13.880;2022-11-04T11:25:20;10.90;;;3.30;;
11418;SDS011;32800;44.876;13.880;2022-11-04T11:27:49;5.97;;;2.92;;
11418;SDS011;32800;44.876;13.880;2022-11-04T11:30:32;6.97;;;2.70;;
11418;SDS011;32800;44.876;13.880;2022-11-04T11:35:30;5.70;;;2.80;;
11418;SDS011;32800;44.876;13.880;2022-11-04T11:37:57;7.38;;;3.05;;
11418;SDS011;32800;44.876;13.880;2022-11-04T11:40:25;5.70;;;2.92;;
11418;SDS011;32800;44.876;13.880;2022-11-04T11:42:52;4.15;;;2.15;;
11418;SDS011;32800;44.876;13.880;2022-11-04T11:45:19;5.05;;;2.40;;
11418;SDS011;32800;44.876;13.880;2022-11-04T11:47:47;5.53;;;2.60;;
11418;SDS011;32800;44.876;13.880;2022-11-04T11:50:19;5.82;;;2.78;;
11418;SDS011;32800;44.876;13.880;2022-11-04T11:52:48;4.47;;;2.13;;
11418;SDS011;32800;44.876;13.880;2022-11-04T11:55:57;6.60;;;2.30;;
11418;SDS011;32800;44.876;13.880;2022-11-04T12:01:33;6.03;;;2.55;;
11418;SDS011;32800;44.876;13.880;2022-11-04T12:03:56;6.30;;;2.58;;
11418;SDS011;32800;44.876;13.880;2022-11-04T12:17:21;5.18;;;2.20;;
11418;SDS011;32800;44.876;13.880;2022-11-04T12:36:09;6.18;;;1.88;;
11418;SDS011;32800;44.876;13.880;2022-11-04T12:38:47;5.75;;;2.03;;
11418;SDS011;32800;44.876;13.880;2022-11-04T13:01:13;4.47;;;1.60;;
11418;SDS011;32800;44.876;13.880;2022-11-04T13:03:45;4.25;;;1.90;;
11418;SDS011;32800;44.876;13.880;2022-11-04T13:12:16;4.40;;;1.60;;
11418;SDS011;32800;44.876;13.880;2022-11-04T13:17:28;3.03;;;1.60;;
11418;SDS011;32800;44.876;13.880;2022-11-04T13:19:57;2.47;;;1.42;;
11418;SDS011;32800;44.876;13.880;2022-11-04T13:22:28;3.80;;;1.52;;
11418;SDS011;32800;44.876;13.880;2022-11-04T13:24:57;3.67;;;1.70;;
11418;SDS011;32800;44.876;13.880;2022-11-04T13:27:30;3.20;;;1.52;;
11418;SDS011;32800;44.876;13.880;2022-11-04T13:43:35;2.67;;;1.15;;
11418;SDS011;32800;44.876;13.880;2022-11-04T13:48:35;3.30;;;1.52;;
11418;SDS011;32800;44.876;13.880;2022-11-04T13:51:06;2.60;;;1.20;;
11418;SDS011;32800;44.876;13.880;2022-11-04T13:56:31;2.47;;;1.27;;
11418;SDS011;32800;44.876;13.880;2022-11-04T13:59:05;4.20;;;1.38;;
11418;SDS011;32800;44.876;13.880;2022-11-04T14:02:14;1.95;;;1.30;;
11418;SDS011;32800;44.876;13.880;2022-11-04T14:04:35;3.83;;;1.25;;
11418;SDS011;32800;44.876;13.880;2022-11-04T14:07:05;2.53;;;1.45;;
11418;SDS011;32800;44.876;13.880;2022-11-04T14:09:55;3.88;;;1.50;;
11418;SDS011;32800;44.876;13.880;2022-11-04T14:12:30;3.63;;;1.60;;
11418;SDS011;32800;44.876;13.880;2022-11-04T14:15:07;2.38;;;1.38;;
11418;SDS011;32800;44.876;13.880;2022-11-04T14:30:43;2.97;;;1.40;;
11418;SDS011;32800;44.876;13.880;2022-11-04T14:35:55;4.40;;;1.42;;
11418;SDS011;32800;44.876;13.880;2022-11-04T14:47:15;1.95;;;1.08;;
11418;SDS011;32800;44.876;13.880;2022-11-04T14:50:04;1.85;;;1.10;;
11418;SDS011;32800;44.876;13.880;2022-11-04T14:52:37;3.17;;;1.20;;
11418;SDS011;32800;44.876;13.880;2022-11-04T14:57:39;2.75;;;1.33;;
11418;SDS011;32800;44.876;13.880;2022-11-04T15:03:05;2.00;;;1.10;;
11418;SDS011;32800;44.876;13.880;2022-11-04T15:05:37;3.80;;;1.25;;
11418;SDS011;32800;44.876;13.880;2022-11-04T15:10:57;2.83;;;1.10;;
11418;SDS011;32800;44.876;13.880;2022-11-04T15:13:23;5.78;;;1.60;;
11418;SDS011;32800;44.876;13.880;2022-11-04T15:15:49;2.47;;;1.00;;
11418;SDS011;32800;44.876;13.880;2022-11-04T15:18:21;4.18;;;1.40;;
11418;SDS011;32800;44.876;13.880;2022-11-04T15:20:52;4.82;;;1.20;;
11418;SDS011;32800;44.876;13.880;2022-11-04T15:23:55;2.08;;;1.20;;
11418;SDS011;32800;44.876;13.880;2022-11-04T15:26:22;4.38;;;1.23;;
11418;SDS011;32800;44.876;13.880;2022-11-04T15:28:50;2.67;;;1.20;;
11418;SDS011;32800;44.876;13.880;2022-11-04T15:31:23;4.18;;;1.50;;
11418;SDS011;32800;44.876;13.880;2022-11-04T15:33:54;2.10;;;1.48;;
11418;SDS011;32800;44.876;13.880;2022-11-04T15:36:22;5.32;;;1.50;;
11418;SDS011;32800;44.876;13.880;2022-11-04T15:41:39;3.83;;;1.58;;
11418;SDS011;32800;44.876;13.880;2022-11-04T15:44:25;5.93;;;1.90;;
11418;SDS011;32800;44.876;13.880;2022-11-04T15:46:56;4.90;;;2.10;;
11418;SDS011;32800;44.876;13.880;2022-11-04T15:49:24;7.57;;;2.42;;
11418;SDS011;32800;44.876;13.880;2022-11-04T15:51:55;7.03;;;2.95;;
11418;SDS011;32800;44.876;13.880;2022-11-04T15:54:33;5.43;;;2.35;;
11418;SDS011;32800;44.876;13.880;2022-11-04T16:00:06;3.67;;;1.70;;
11418;SDS011;32800;44.876;13.880;2022-11-04T16:02:54;2.65;;;1.25;;
11418;SDS011;32800;44.876;13.880;2022-11-04T16:05:22;6.25;;;1.55;;
11418;SDS011;32800;44.876;13.880;2022-11-04T16:08:18;7.47;;;1.70;;
11418;SDS011;32800;44.876;13.880;2022-11-04T16:10:45;4.13;;;1.92;;
11418;SDS011;32800;44.876;13.880;2022-11-04T16:18:34;6.43;;;2.53;;
11418;SDS011;32800;44.876;13.880;2022-11-04T16:21:04;5.15;;;2.42;;
11418;SDS011;32800;44.876;13.880;2022-11-04T16:23:37;6.05;;;1.80;;
11418;SDS011;32800;44.876;13.880;2022-11-04T16:26:08;4.30;;;2.20;;
11418;SDS011;32800;44.876;13.880;2022-11-04T16:28:34;7.75;;;2.08;;
11418;SDS011;32800;44.876;13.880;2022-11-04T16:31:03;5.45;;;2.28;;
11418;SDS011;32800;44.876;13.880;2022-11-04T16:33:31;3.47;;;2.28;;
11418;SDS011;32800;44.876;13.880;2022-11-04T16:35:57;5.18;;;2.20;;
11418;SDS011;32800;44.876;13.880;2022-11-04T16:38:22;6.97;;;2.10;;
11418;SDS011;32800;44.876;13.880;2022-11-04T16:40:48;4.50;;;2.13;;
11418;SDS011;32800;44.876;13.880;2022-11-04T16:43:18;5.97;;;2.03;;
11418;SDS011;32800;44.876;13.880;2022-11-04T16:45:46;4.72;;;2.00;;
11418;SDS011;32800;44.876;13.880;2022-11-04T16:48:16;3.78;;;1.90;;
11418;SDS011;32800;44.876;13.880;2022-11-04T16:50:43;3.35;;;2.10;;
11418;SDS011;32800;44.876;13.880;2022-11-04T16:53:09;5.55;;;2.28;;
11418;SDS011;32800;44.876;13.880;2022-11-04T16:55:34;4.20;;;2.10;;
11418;SDS011;32800;44.876;13.880;2022-11-04T16:58:04;5.38;;;2.33;;
11418;SDS011;32800;44.876;13.880;2022-11-04T17:00:32;4.13;;;2.03;;
11418;SDS011;32800;44.876;13.880;2022-11-04T17:03:13;2.72;;;2.05;;
11418;SDS011;32800;44.876;13.880;2022-11-04T17:05:47;4.07;;;2.10;;
11418;SDS011;32800;44.876;13.880;2022-11-04T17:08:20;5.82;;;2.20;;
11418;SDS011;32800;44.876;13.880;2022-11-04T17:10:45;3.85;;;2.25;;
11418;SDS011;32800;44.876;13.880;2022-11-04T17:13:11;5.90;;;1.95;;
11418;SDS011;32800;44.876;13.880;2022-11-04T17:15:37;3.63;;;1.92;;
11418;SDS011;32800;44.876;13.880;2022-11-04T17:18:02;2.60;;;1.95;;
11418;SDS011;32800;44.876;13.880;2022-11-04T17:20:28;2.80;;;1.80;;
11418;SDS011;32800;44.876;13.880;2022-11-04T17:22:56;3.28;;;1.70;;
11418;SDS011;32800;44.876;13.880;2022-11-04T17:25:24;3.08;;;2.10;;
11418;SDS011;32800;44.876;13.880;2022-11-04T17:27:51;3.42;;;1.88;;
11418;SDS011;32800;44.876;13.880;2022-11-04T17:30:17;4.20;;;2.10;;
11418;SDS011;32800;44.876;13.880;2022-11-04T17:32:43;3.67;;;2.00;;
11418;SDS011;32800;44.876;13.880;2022-11-04T17:35:10;3.25;;;1.90;;
11418;SDS011;32800;44.876;13.880;2022-11-04T17:37:39;3.80;;;2.10;;
11418;SDS011;32800;44.876;13.880;2022-11-04T17:40:06;3.70;;;1.90;;
11418;SDS011;32800;44.876;13.880;2022-11-04T17:42:32;3.72;;;2.03;;
11418;SDS011;32800;44.876;13.880;2022-11-04T17:45:17;3.03;;;1.92;;
11418;SDS011;32800;44.876;13.880;2022-11-04T17:47:42;2.22;;;1.83;;
11418;SDS011;32800;44.876;13.880;2022-11-04T17:50:08;2.88;;;1.70;;
11418;SDS011;32800;44.876;13.880;2022-11-04T17:52:34;2.40;;;1.73;;
11418;SDS011;32800;44.876;13.880;2022-11-04T17:55:08;3.20;;;1.92;;
11418;SDS011;32800;44.876;13.880;2022-11-04T17:57:35;2.72;;;1.88;;
11418;SDS011;32800;44.876;13.880;2022-11-04T18:00:00;3.10;;;1.75;;
11418;SDS011;32800;44.876;13.880;2022-11-04T18:02:30;2.78;;;1.80;;
11418;SDS011;32800;44.876;13.880;2022-11-04T18:05:02;2.80;;;1.80;;
11418;SDS011;32800;44.876;13.880;2022-11-04T18:07:28;2.80;;;1.70;;
11418;SDS011;32800;44.876;13.880;2022-11-04T18:09:54;2.00;;;1.60;;